sensor_id;sensor_type;location;lat;lon;timestamp;P1;durP1;ratioP1;P2;durP2;ratioP2
5121;SDS011;2563;52.242;7.956;2022-09-01T00:01:33;3.97;;;1.90;;
5121;SDS011;2563;52.242;7.956;2022-09-01T00:04:05;12.00;;;2.30;;
5121;SDS011;2563;52.242;7.956;2022-09-01T00:06:34;3.17;;;1.80;;
5121;SDS011;2563;52.242;7.956;2022-09-01T00:09:04;2.37;;;1.67;;
5121;SDS011;2563;52.242;7.956;2022-09-01T00:11:32;3.77;;;1.87;;
5121;SDS011;2563;52.242;7.956;2022-09-01T00:13:59;3.13;;;1.70;;
5121;SDS011;2563;52.242;7.956;2022-09-01T00:16:27;3.87;;;1.80;;
5121;SDS011;2563;52.242;7.956;2022-09-01T00:18:56;3.97;;;2.17;;
5121;SDS011;2563;52.242;7.956;2022-09-01T00:21:23;3.10;;;2.17;;
5121;SDS011;2563;52.242;7.956;2022-09-01T00:23:51;4.23;;;1.70;;
5121;SDS011;2563;52.242;7.956;2022-09-01T00:26:17;5.13;;;2.00;;
5121;SDS011;2563;52.242;7.956;2022-09-01T00:28:42;7.43;;;1.87;;
5121;SDS011;2563;52.242;7.956;2022-09-01T00:31:08;3.60;;;1.70;;
5121;SDS011;2563;52.242;7.956;2022-09-01T00:33:35;4.47;;;2.10;;
5121;SDS011;2563;52.242;7.956;2022-09-01T00:36:01;2.87;;;1.50;;
5121;SDS011;2563;52.242;7.956;2022-09-01T00:38:29;5.17;;;2.17;;
5121;SDS011;2563;52.242;7.956;2022-09-01T00:40:55;3.20;;;1.80;;
5121;SDS011;2563;52.242;7.956;2022-09-01T00:43:22;3.97;;;1.83;;
5121;SDS011;2563;52.242;7.956;2022-09-01T00:46:04;3.43;;;1.73;;
5121;SDS011;2563;52.242;7.956;2022-09-01T00:48:34;4.90;;;1.93;;
5121;SDS011;2563;52.242;7.956;2022-09-01T00:51:00;3.97;;;1.97;;
5121;SDS011;2563;52.242;7.956;2022-09-01T00:53:26;5.57;;;1.53;;
5121;SDS011;2563;52.242;7.956;2022-09-01T00:55:52;3.70;;;1.77;;
5121;SDS011;2563;52.242;7.956;2022-09-01T00:58:17;4.00;;;2.10;;
5121;SDS011;2563;52.242;7.956;2022-09-01T01:00:43;4.83;;;2.23;;
5121;SDS011;2563;52.242;7.956;2022-09-01T01:03:13;5.00;;;2.53;;
5121;SDS011;2563;52.242;7.956;2022-09-01T01:05:40;4.20;;;1.80;;
5121;SDS011;2563;52.242;7.956;2022-09-01T01:08:11;6.40;;;2.10;;
5121;SDS011;2563;52.242;7.956;2022-09-01T01:10:38;5.97;;;2.23;;
5121;SDS011;2563;52.242;7.956;2022-09-01T01:13:09;3.70;;;2.03;;
5121;SDS011;2563;52.242;7.956;2022-09-01T01:15:37;9.00;;;2.50;;
5121;SDS011;2563;52.242;7.956;2022-09-01T01:18:08;9.23;;;2.27;;
5121;SDS011;2563;52.242;7.956;2022-09-01T01:20:37;5.13;;;2.00;;
5121;SDS011;2563;52.242;7.956;2022-09-01T01:23:39;3.50;;;1.97;;
5121;SDS011;2563;52.242;7.956;2022-09-01T01:26:34;2.93;;;1.60;;
5121;SDS011;2563;52.242;7.956;2022-09-01T01:29:01;4.10;;;1.83;;
5121;SDS011;2563;52.242;7.956;2022-09-01T01:31:27;8.13;;;2.20;;
5121;SDS011;2563;52.242;7.956;2022-09-01T01:33:54;8.67;;;2.40;;
5121;SDS011;2563;52.242;7.956;2022-09-01T01:36:28;6.23;;;2.80;;
5121;SDS011;2563;52.242;7.956;2022-09-01T01:38:57;9.63;;;3.87;;
5121;SDS011;2563;52.242;7.956;2022-09-01T01:41:26;10.97;;;4.60;;
5121;SDS011;2563;52.242;7.956;2022-09-01T01:43:53;18.50;;;4.97;;
5121;SDS011;2563;52.242;7.956;2022-09-01T01:46:24;10.87;;;3.30;;
5121;SDS011;2563;52.242;7.956;2022-09-01T01:48:51;8.33;;;2.90;;
5121;SDS011;2563;52.242;7.956;2022-09-01T01:51:18;7.53;;;2.57;;
5121;SDS011;2563;52.242;7.956;2022-09-01T01:53:45;5.83;;;2.63;;
5121;SDS011;2563;52.242;7.956;2022-09-01T01:56:11;8.10;;;3.47;;
5121;SDS011;2563;52.242;7.956;2022-09-01T01:58:37;7.23;;;3.40;;
5121;SDS011;2563;52.242;7.956;2022-09-01T02:01:04;7.47;;;3.00;;
5121;SDS011;2563;52.242;7.956;2022-09-01T02:03:31;8.20;;;3.00;;
5121;SDS011;2563;52.242;7.956;2022-09-01T02:06:03;5.13;;;2.63;;
5121;SDS011;2563;52.242;7.956;2022-09-01T02:08:32;6.47;;;2.73;;
5121;SDS011;2563;52.242;7.956;2022-09-01T02:11:00;6.43;;;2.10;;
5121;SDS011;2563;52.242;7.956;2022-09-01T02:13:26;9.37;;;1.83;;
5121;SDS011;2563;52.242;7.956;2022-09-01T02:15:55;7.50;;;2.90;;
5121;SDS011;2563;52.242;7.956;2022-09-01T02:18:30;5.73;;;2.77;;
5121;SDS011;2563;52.242;7.956;2022-09-01T02:21:01;4.43;;;2.07;;
5121;SDS011;2563;52.242;7.956;2022-09-01T02:23:37;5.20;;;2.10;;
5121;SDS011;2563;52.242;7.956;2022-09-01T02:26:04;3.40;;;1.83;;
5121;SDS011;2563;52.242;7.956;2022-09-01T02:28:33;6.27;;;2.50;;
5121;SDS011;2563;52.242;7.956;2022-09-01T02:31:01;3.63;;;1.80;;
5121;SDS011;2563;52.242;7.956;2022-09-01T02:33:28;16.53;;;2.60;;
5121;SDS011;2563;52.242;7.956;2022-09-01T02:36:06;7.03;;;2.47;;
5121;SDS011;2563;52.242;7.956;2022-09-01T02:38:34;4.13;;;2.27;;
5121;SDS011;2563;52.242;7.956;2022-09-01T02:41:00;3.63;;;2.00;;
5121;SDS011;2563;52.242;7.956;2022-09-01T02:43:27;3.93;;;2.20;;
5121;SDS011;2563;52.242;7.956;2022-09-01T02:45:57;4.23;;;1.93;;
5121;SDS011;2563;52.242;7.956;2022-09-01T02:48:31;4.70;;;2.40;;
5121;SDS011;2563;52.242;7.956;2022-09-01T02:51:00;5.43;;;2.00;;
5121;SDS011;2563;52.242;7.956;2022-09-01T02:53:30;5.20;;;2.03;;
5121;SDS011;2563;52.242;7.956;2022-09-01T02:55:59;3.53;;;1.80;;
5121;SDS011;2563;52.242;7.956;2022-09-01T02:58:26;6.93;;;2.10;;
5121;SDS011;2563;52.242;7.956;2022-09-01T03:00:55;6.57;;;2.60;;
5121;SDS011;2563;52.242;7.956;2022-09-01T03:03:22;6.53;;;2.50;;
5121;SDS011;2563;52.242;7.956;2022-09-01T03:05:50;8.17;;;2.70;;
5121;SDS011;2563;52.242;7.956;2022-09-01T03:08:20;7.30;;;3.37;;
5121;SDS011;2563;52.242;7.956;2022-09-01T03:10:48;7.80;;;3.23;;
5121;SDS011;2563;52.242;7.956;2022-09-01T03:13:15;7.70;;;2.83;;
5121;SDS011;2563;52.242;7.956;2022-09-01T03:15:44;6.63;;;2.67;;
5121;SDS011;2563;52.242;7.956;2022-09-01T03:18:10;11.53;;;3.17;;
5121;SDS011;2563;52.242;7.956;2022-09-01T03:20:38;6.83;;;2.77;;
5121;SDS011;2563;52.242;7.956;2022-09-01T03:23:07;8.83;;;2.70;;
5121;SDS011;2563;52.242;7.956;2022-09-01T03:25:34;5.60;;;2.23;;
5121;SDS011;2563;52.242;7.956;2022-09-01T03:28:00;4.00;;;2.00;;
5121;SDS011;2563;52.242;7.956;2022-09-01T03:30:30;3.90;;;1.50;;
5121;SDS011;2563;52.242;7.956;2022-09-01T03:32:57;3.73;;;1.93;;
5121;SDS011;2563;52.242;7.956;2022-09-01T03:35:24;4.63;;;2.07;;
5121;SDS011;2563;52.242;7.956;2022-09-01T03:37:52;6.60;;;2.13;;
5121;SDS011;2563;52.242;7.956;2022-09-01T03:40:19;4.77;;;2.10;;
5121;SDS011;2563;52.242;7.956;2022-09-01T03:42:45;6.03;;;2.23;;
5121;SDS011;2563;52.242;7.956;2022-09-01T03:45:11;6.10;;;2.53;;
5121;SDS011;2563;52.242;7.956;2022-09-01T03:47:43;11.20;;;2.00;;
5121;SDS011;2563;52.242;7.956;2022-09-01T03:50:12;6.17;;;1.80;;
5121;SDS011;2563;52.242;7.956;2022-09-01T03:52:53;5.20;;;2.00;;
5121;SDS011;2563;52.242;7.956;2022-09-01T03:55:25;11.13;;;2.07;;
5121;SDS011;2563;52.242;7.956;2022-09-01T03:57:54;4.20;;;1.90;;
5121;SDS011;2563;52.242;7.956;2022-09-01T04:00:22;3.30;;;1.47;;
5121;SDS011;2563;52.242;7.956;2022-09-01T04:02:49;2.70;;;1.60;;
5121;SDS011;2563;52.242;7.956;2022-09-01T04:05:19;5.47;;;1.90;;
5121;SDS011;2563;52.242;7.956;2022-09-01T04:07:45;6.23;;;1.97;;
5121;SDS011;2563;52.242;7.956;2022-09-01T04:10:12;5.10;;;2.20;;
5121;SDS011;2563;52.242;7.956;2022-09-01T04:12:38;4.13;;;1.80;;
5121;SDS011;2563;52.242;7.956;2022-09-01T04:15:04;6.10;;;1.80;;
5121;SDS011;2563;52.242;7.956;2022-09-01T04:17:32;7.00;;;2.40;;
5121;SDS011;2563;52.242;7.956;2022-09-01T04:20:16;8.10;;;2.17;;
5121;SDS011;2563;52.242;7.956;2022-09-01T04:22:44;4.60;;;2.07;;
5121;SDS011;2563;52.242;7.956;2022-09-01T04:25:11;4.80;;;1.50;;
5121;SDS011;2563;52.242;7.956;2022-09-01T04:27:37;3.47;;;1.80;;
5121;SDS011;2563;52.242;7.956;2022-09-01T04:30:04;3.60;;;2.10;;
5121;SDS011;2563;52.242;7.956;2022-09-01T04:32:34;3.80;;;1.97;;
5121;SDS011;2563;52.242;7.956;2022-09-01T04:35:04;6.83;;;1.90;;
5121;SDS011;2563;52.242;7.956;2022-09-01T04:37:31;4.20;;;2.20;;
5121;SDS011;2563;52.242;7.956;2022-09-01T04:40:00;3.33;;;1.93;;
5121;SDS011;2563;52.242;7.956;2022-09-01T04:42:28;6.30;;;2.27;;
5121;SDS011;2563;52.242;7.956;2022-09-01T04:44:56;4.33;;;1.90;;
5121;SDS011;2563;52.242;7.956;2022-09-01T04:47:24;6.30;;;2.07;;
5121;SDS011;2563;52.242;7.956;2022-09-01T04:49:56;8.50;;;2.00;;
5121;SDS011;2563;52.242;7.956;2022-09-01T04:52:24;3.73;;;1.60;;
5121;SDS011;2563;52.242;7.956;2022-09-01T04:54:51;6.20;;;1.93;;
5121;SDS011;2563;52.242;7.956;2022-09-01T04:57:18;4.13;;;2.33;;
5121;SDS011;2563;52.242;7.956;2022-09-01T04:59:44;7.00;;;2.33;;
5121;SDS011;2563;52.242;7.956;2022-09-01T05:02:10;4.73;;;2.13;;
5121;SDS011;2563;52.242;7.956;2022-09-01T05:04:36;8.10;;;2.77;;
5121;SDS011;2563;52.242;7.956;2022-09-01T05:07:02;7.50;;;2.30;;
5121;SDS011;2563;52.242;7.956;2022-09-01T05:09:30;12.93;;;2.50;;
5121;SDS011;2563;52.242;7.956;2022-09-01T05:12:01;6.67;;;2.50;;
5121;SDS011;2563;52.242;7.956;2022-09-01T05:14:38;5.50;;;2.10;;
5121;SDS011;2563;52.242;7.956;2022-09-01T05:17:06;5.30;;;2.20;;
5121;SDS011;2563;52.242;7.956;2022-09-01T05:19:35;6.73;;;2.43;;
5121;SDS011;2563;52.242;7.956;2022-09-01T05:22:01;6.33;;;2.50;;
5121;SDS011;2563;52.242;7.956;2022-09-01T05:24:30;6.87;;;2.30;;
5121;SDS011;2563;52.242;7.956;2022-09-01T05:26:56;8.40;;;2.50;;
5121;SDS011;2563;52.242;7.956;2022-09-01T05:29:24;5.87;;;2.10;;
5121;SDS011;2563;52.242;7.956;2022-09-01T05:31:51;4.00;;;2.27;;
5121;SDS011;2563;52.242;7.956;2022-09-01T05:34:18;5.87;;;2.20;;
5121;SDS011;2563;52.242;7.956;2022-09-01T05:36:47;7.73;;;2.50;;
5121;SDS011;2563;52.242;7.956;2022-09-01T05:39:14;11.10;;;3.00;;
5121;SDS011;2563;52.242;7.956;2022-09-01T05:41:40;9.97;;;2.83;;
5121;SDS011;2563;52.242;7.956;2022-09-01T05:44:05;12.20;;;2.80;;
5121;SDS011;2563;52.242;7.956;2022-09-01T05:46:32;7.70;;;2.77;;
5121;SDS011;2563;52.242;7.956;2022-09-01T05:48:59;8.00;;;3.20;;
5121;SDS011;2563;52.242;7.956;2022-09-01T05:51:26;5.33;;;3.00;;
5121;SDS011;2563;52.242;7.956;2022-09-01T05:53:54;5.30;;;2.90;;
5121;SDS011;2563;52.242;7.956;2022-09-01T05:56:23;7.90;;;2.87;;
5121;SDS011;2563;52.242;7.956;2022-09-01T05:58:50;5.77;;;2.80;;
5121;SDS011;2563;52.242;7.956;2022-09-01T06:01:17;6.00;;;2.90;;
5121;SDS011;2563;52.242;7.956;2022-09-01T06:03:46;16.13;;;3.97;;
5121;SDS011;2563;52.242;7.956;2022-09-01T06:06:14;6.30;;;3.40;;
5121;SDS011;2563;52.242;7.956;2022-09-01T06:08:40;10.37;;;3.50;;
5121;SDS011;2563;52.242;7.956;2022-09-01T06:11:07;11.37;;;3.37;;
5121;SDS011;2563;52.242;7.956;2022-09-01T06:13:38;33.43;;;4.17;;
5121;SDS011;2563;52.242;7.956;2022-09-01T06:16:09;8.60;;;3.80;;
5121;SDS011;2563;52.242;7.956;2022-09-01T06:18:37;10.83;;;3.50;;
5121;SDS011;2563;52.242;7.956;2022-09-01T06:21:03;6.40;;;3.10;;
5121;SDS011;2563;52.242;7.956;2022-09-01T06:23:32;8.20;;;3.50;;
5121;SDS011;2563;52.242;7.956;2022-09-01T06:25:58;6.50;;;3.13;;
5121;SDS011;2563;52.242;7.956;2022-09-01T06:28:24;6.60;;;3.00;;
5121;SDS011;2563;52.242;7.956;2022-09-01T06:30:49;6.90;;;3.03;;
5121;SDS011;2563;52.242;7.956;2022-09-01T06:33:15;7.23;;;3.37;;
5121;SDS011;2563;52.242;7.956;2022-09-01T06:35:42;9.00;;;3.37;;
5121;SDS011;2563;52.242;7.956;2022-09-01T06:38:09;7.10;;;3.43;;
5121;SDS011;2563;52.242;7.956;2022-09-01T06:40:36;6.47;;;3.30;;
5121;SDS011;2563;52.242;7.956;2022-09-01T06:43:03;6.17;;;3.10;;
5121;SDS011;2563;52.242;7.956;2022-09-01T06:45:32;8.13;;;3.33;;
5121;SDS011;2563;52.242;7.956;2022-09-01T06:47:59;6.90;;;3.47;;
5121;SDS011;2563;52.242;7.956;2022-09-01T06:50:25;13.53;;;3.50;;
5121;SDS011;2563;52.242;7.956;2022-09-01T06:52:51;8.87;;;3.23;;
5121;SDS011;2563;52.242;7.956;2022-09-01T06:55:25;5.90;;;2.93;;
5121;SDS011;2563;52.242;7.956;2022-09-01T06:57:57;7.63;;;2.77;;
5121;SDS011;2563;52.242;7.956;2022-09-01T07:00:23;6.37;;;2.97;;
5121;SDS011;2563;52.242;7.956;2022-09-01T07:02:52;7.20;;;2.57;;
5121;SDS011;2563;52.242;7.956;2022-09-01T07:05:19;6.53;;;2.50;;
5121;SDS011;2563;52.242;7.956;2022-09-01T07:07:49;7.80;;;2.97;;
5121;SDS011;2563;52.242;7.956;2022-09-01T07:10:18;7.47;;;2.53;;
5121;SDS011;2563;52.242;7.956;2022-09-01T07:12:47;4.43;;;2.20;;
5121;SDS011;2563;52.242;7.956;2022-09-01T07:15:14;9.10;;;2.17;;
5121;SDS011;2563;52.242;7.956;2022-09-01T07:17:42;5.60;;;2.50;;
5121;SDS011;2563;52.242;7.956;2022-09-01T07:20:12;5.30;;;2.60;;
5121;SDS011;2563;52.242;7.956;2022-09-01T07:22:39;4.13;;;2.10;;
5121;SDS011;2563;52.242;7.956;2022-09-01T07:25:05;9.03;;;2.40;;
5121;SDS011;2563;52.242;7.956;2022-09-01T07:27:32;5.63;;;2.27;;
5121;SDS011;2563;52.242;7.956;2022-09-01T07:29:57;4.00;;;2.37;;
5121;SDS011;2563;52.242;7.956;2022-09-01T07:32:22;4.60;;;2.37;;
5121;SDS011;2563;52.242;7.956;2022-09-01T07:34:48;5.77;;;2.30;;
5121;SDS011;2563;52.242;7.956;2022-09-01T07:37:13;4.50;;;2.27;;
5121;SDS011;2563;52.242;7.956;2022-09-01T07:39:39;8.13;;;2.40;;
5121;SDS011;2563;52.242;7.956;2022-09-01T07:42:13;4.00;;;2.07;;
5121;SDS011;2563;52.242;7.956;2022-09-01T07:44:41;3.77;;;2.00;;
5121;SDS011;2563;52.242;7.956;2022-09-01T07:47:06;4.27;;;1.83;;
5121;SDS011;2563;52.242;7.956;2022-09-01T07:49:33;11.60;;;2.20;;
5121;SDS011;2563;52.242;7.956;2022-09-01T07:52:01;4.53;;;1.70;;
5121;SDS011;2563;52.242;7.956;2022-09-01T07:54:28;5.57;;;1.63;;
5121;SDS011;2563;52.242;7.956;2022-09-01T07:56:54;9.07;;;1.90;;
5121;SDS011;2563;52.242;7.956;2022-09-01T07:59:20;5.70;;;2.00;;
5121;SDS011;2563;52.242;7.956;2022-09-01T08:01:46;4.50;;;1.77;;
5121;SDS011;2563;52.242;7.956;2022-09-01T08:04:12;5.80;;;1.90;;
5121;SDS011;2563;52.242;7.956;2022-09-01T08:06:38;7.00;;;1.60;;
5121;SDS011;2563;52.242;7.956;2022-09-01T08:09:04;4.87;;;1.77;;
5121;SDS011;2563;52.242;7.956;2022-09-01T08:11:31;3.87;;;1.80;;
5121;SDS011;2563;52.242;7.956;2022-09-01T08:13:57;3.60;;;1.60;;
5121;SDS011;2563;52.242;7.956;2022-09-01T08:16:24;4.07;;;1.80;;
5121;SDS011;2563;52.242;7.956;2022-09-01T08:18:50;11.50;;;1.80;;
5121;SDS011;2563;52.242;7.956;2022-09-01T08:21:16;9.63;;;2.00;;
5121;SDS011;2563;52.242;7.956;2022-09-01T08:23:46;5.30;;;1.97;;
5121;SDS011;2563;52.242;7.956;2022-09-01T08:26:13;5.37;;;1.80;;
5121;SDS011;2563;52.242;7.956;2022-09-01T08:28:40;3.17;;;1.27;;
5121;SDS011;2563;52.242;7.956;2022-09-01T08:31:10;4.70;;;1.60;;
5121;SDS011;2563;52.242;7.956;2022-09-01T08:33:37;5.17;;;1.60;;
5121;SDS011;2563;52.242;7.956;2022-09-01T08:36:06;7.13;;;1.60;;
5121;SDS011;2563;52.242;7.956;2022-09-01T08:38:32;4.53;;;1.57;;
5121;SDS011;2563;52.242;7.956;2022-09-01T08:40:58;3.07;;;1.43;;
5121;SDS011;2563;52.242;7.956;2022-09-01T08:46:27;4.47;;;1.40;;
5121;SDS011;2563;52.242;7.956;2022-09-01T08:48:59;3.30;;;1.33;;
5121;SDS011;2563;52.242;7.956;2022-09-01T08:51:42;6.20;;;2.07;;
5121;SDS011;2563;52.242;7.956;2022-09-01T09:00:00;6.20;;;1.70;;
5121;SDS011;2563;52.242;7.956;2022-09-01T09:16:00;4.53;;;1.80;;
5121;SDS011;2563;52.242;7.956;2022-09-01T09:18:49;8.73;;;1.80;;
5121;SDS011;2563;52.242;7.956;2022-09-01T09:21:41;4.07;;;1.50;;
5121;SDS011;2563;52.242;7.956;2022-09-01T09:24:09;10.33;;;1.80;;
5121;SDS011;2563;52.242;7.956;2022-09-01T09:26:54;5.63;;;1.40;;
5121;SDS011;2563;52.242;7.956;2022-09-01T09:29:20;3.80;;;1.30;;
5121;SDS011;2563;52.242;7.956;2022-09-01T09:31:46;4.27;;;1.60;;
5121;SDS011;2563;52.242;7.956;2022-09-01T09:37:00;3.20;;;1.30;;
5121;SDS011;2563;52.242;7.956;2022-09-01T09:42:40;3.73;;;0.90;;
5121;SDS011;2563;52.242;7.956;2022-09-01T09:48:00;2.73;;;1.40;;
5121;SDS011;2563;52.242;7.956;2022-09-01T09:50:40;6.87;;;1.23;;
5121;SDS011;2563;52.242;7.956;2022-09-01T09:53:26;1.77;;;1.10;;
5121;SDS011;2563;52.242;7.956;2022-09-01T09:58:41;2.10;;;1.23;;
5121;SDS011;2563;52.242;7.956;2022-09-01T10:01:29;1.70;;;1.00;;
5121;SDS011;2563;52.242;7.956;2022-09-01T10:03:56;2.87;;;1.43;;
5121;SDS011;2563;52.242;7.956;2022-09-01T10:08:55;3.87;;;1.20;;
5121;SDS011;2563;52.242;7.956;2022-09-01T10:13:51;8.00;;;1.60;;
5121;SDS011;2563;52.242;7.956;2022-09-01T10:16:21;3.90;;;1.10;;
5121;SDS011;2563;52.242;7.956;2022-09-01T10:18:51;5.77;;;1.30;;
5121;SDS011;2563;52.242;7.956;2022-09-01T10:21:21;9.17;;;1.37;;
5121;SDS011;2563;52.242;7.956;2022-09-01T10:23:50;2.80;;;1.20;;
5121;SDS011;2563;52.242;7.956;2022-09-01T10:29:28;2.07;;;1.30;;
5121;SDS011;2563;52.242;7.956;2022-09-01T10:31:57;1.40;;;1.00;;
5121;SDS011;2563;52.242;7.956;2022-09-01T10:34:24;2.10;;;1.40;;
5121;SDS011;2563;52.242;7.956;2022-09-01T10:36:56;4.03;;;1.50;;
5121;SDS011;2563;52.242;7.956;2022-09-01T10:39:22;1.63;;;1.10;;
5121;SDS011;2563;52.242;7.956;2022-09-01T10:41:49;10.60;;;1.50;;
5121;SDS011;2563;52.242;7.956;2022-09-01T10:46:54;2.00;;;1.00;;
5121;SDS011;2563;52.242;7.956;2022-09-01T10:51:52;2.83;;;1.10;;
5121;SDS011;2563;52.242;7.956;2022-09-01T10:59:54;1.60;;;1.00;;
5121;SDS011;2563;52.242;7.956;2022-09-01T11:08:22;2.43;;;1.20;;
5121;SDS011;2563;52.242;7.956;2022-09-01T11:11:04;3.50;;;1.43;;
5121;SDS011;2563;52.242;7.956;2022-09-01T11:13:41;2.00;;;1.10;;
5121;SDS011;2563;52.242;7.956;2022-09-01T11:16:25;2.93;;;1.00;;
5121;SDS011;2563;52.242;7.956;2022-09-01T11:18:54;2.60;;;1.10;;
5121;SDS011;2563;52.242;7.956;2022-09-01T11:21:39;3.30;;;1.10;;
5121;SDS011;2563;52.242;7.956;2022-09-01T11:27:08;7.87;;;0.83;;
5121;SDS011;2563;52.242;7.956;2022-09-01T11:32:20;2.40;;;1.00;;
5121;SDS011;2563;52.242;7.956;2022-09-01T11:34:49;2.93;;;1.53;;
5121;SDS011;2563;52.242;7.956;2022-09-01T11:37:19;4.13;;;1.30;;
5121;SDS011;2563;52.242;7.956;2022-09-01T11:39:54;2.70;;;1.10;;
5121;SDS011;2563;52.242;7.956;2022-09-01T11:42:24;6.17;;;1.43;;
5121;SDS011;2563;52.242;7.956;2022-09-01T11:47:35;2.33;;;1.50;;
5121;SDS011;2563;52.242;7.956;2022-09-01T11:50:16;3.23;;;1.30;;
5121;SDS011;2563;52.242;7.956;2022-09-01T11:52:51;3.13;;;1.30;;
5121;SDS011;2563;52.242;7.956;2022-09-01T11:55:55;3.50;;;1.30;;
5121;SDS011;2563;52.242;7.956;2022-09-01T12:00:52;7.20;;;1.27;;
5121;SDS011;2563;52.242;7.956;2022-09-01T12:03:27;5.13;;;1.30;;
5121;SDS011;2563;52.242;7.956;2022-09-01T12:05:54;4.60;;;1.50;;
5121;SDS011;2563;52.242;7.956;2022-09-01T12:08:26;3.13;;;1.33;;
5121;SDS011;2563;52.242;7.956;2022-09-01T12:11:17;4.70;;;1.40;;
5121;SDS011;2563;52.242;7.956;2022-09-01T12:14:01;1.67;;;1.20;;
5121;SDS011;2563;52.242;7.956;2022-09-01T12:16:29;3.17;;;1.30;;
5121;SDS011;2563;52.242;7.956;2022-09-01T12:18:58;4.30;;;1.60;;
5121;SDS011;2563;52.242;7.956;2022-09-01T12:21:35;3.30;;;0.90;;
5121;SDS011;2563;52.242;7.956;2022-09-01T12:24:11;3.77;;;1.20;;
5121;SDS011;2563;52.242;7.956;2022-09-01T12:26:40;3.03;;;1.40;;
5121;SDS011;2563;52.242;7.956;2022-09-01T12:29:06;2.07;;;1.40;;
5121;SDS011;2563;52.242;7.956;2022-09-01T12:31:32;4.33;;;1.40;;
5121;SDS011;2563;52.242;7.956;2022-09-01T12:33:58;2.50;;;1.10;;
5121;SDS011;2563;52.242;7.956;2022-09-01T12:36:32;2.90;;;1.40;;
5121;SDS011;2563;52.242;7.956;2022-09-01T12:42:01;5.63;;;1.20;;
5121;SDS011;2563;52.242;7.956;2022-09-01T12:47:06;3.40;;;1.43;;
5121;SDS011;2563;52.242;7.956;2022-09-01T12:49:41;2.10;;;1.10;;
5121;SDS011;2563;52.242;7.956;2022-09-01T12:54:51;7.00;;;1.30;;
5121;SDS011;2563;52.242;7.956;2022-09-01T12:57:24;2.57;;;1.20;;
5121;SDS011;2563;52.242;7.956;2022-09-01T13:02:51;2.40;;;1.50;;
5121;SDS011;2563;52.242;7.956;2022-09-01T13:05:40;2.67;;;0.97;;
5121;SDS011;2563;52.242;7.956;2022-09-01T13:10:40;1.70;;;1.20;;
5121;SDS011;2563;52.242;7.956;2022-09-01T13:13:08;1.43;;;1.20;;
5121;SDS011;2563;52.242;7.956;2022-09-01T13:15:36;7.20;;;1.20;;
5121;SDS011;2563;52.242;7.956;2022-09-01T13:18:04;5.23;;;1.17;;
5121;SDS011;2563;52.242;7.956;2022-09-01T13:20:29;3.10;;;1.13;;
5121;SDS011;2563;52.242;7.956;2022-09-01T13:22:55;1.53;;;1.10;;
5121;SDS011;2563;52.242;7.956;2022-09-01T13:25:21;2.90;;;1.13;;
5121;SDS011;2563;52.242;7.956;2022-09-01T13:27:47;23.90;;;2.80;;
5121;SDS011;2563;52.242;7.956;2022-09-01T13:30:14;2.90;;;0.90;;
5121;SDS011;2563;52.242;7.956;2022-09-01T13:32:42;7.13;;;0.90;;
5121;SDS011;2563;52.242;7.956;2022-09-01T13:35:09;1.50;;;0.90;;
5121;SDS011;2563;52.242;7.956;2022-09-01T13:37:40;2.20;;;1.00;;
5121;SDS011;2563;52.242;7.956;2022-09-01T13:40:06;1.53;;;1.00;;
5121;SDS011;2563;52.242;7.956;2022-09-01T13:42:33;2.23;;;1.10;;
5121;SDS011;2563;52.242;7.956;2022-09-01T13:44:59;3.47;;;1.30;;
5121;SDS011;2563;52.242;7.956;2022-09-01T13:47:25;3.60;;;1.37;;
5121;SDS011;2563;52.242;7.956;2022-09-01T13:49:50;3.33;;;1.30;;
5121;SDS011;2563;52.242;7.956;2022-09-01T13:52:15;3.50;;;1.30;;
5121;SDS011;2563;52.242;7.956;2022-09-01T13:54:41;9.07;;;1.03;;
5121;SDS011;2563;52.242;7.956;2022-09-01T13:57:08;2.20;;;1.00;;
5121;SDS011;2563;52.242;7.956;2022-09-01T13:59:35;7.43;;;1.37;;
5121;SDS011;2563;52.242;7.956;2022-09-01T14:02:00;2.90;;;1.10;;
5121;SDS011;2563;52.242;7.956;2022-09-01T14:04:26;3.57;;;1.00;;
5121;SDS011;2563;52.242;7.956;2022-09-01T14:06:51;3.30;;;1.20;;
5121;SDS011;2563;52.242;7.956;2022-09-01T14:09:17;2.70;;;1.77;;
5121;SDS011;2563;52.242;7.956;2022-09-01T14:11:43;1.47;;;0.83;;
5121;SDS011;2563;52.242;7.956;2022-09-01T14:14:08;2.50;;;1.20;;
5121;SDS011;2563;52.242;7.956;2022-09-01T14:16:34;7.27;;;1.93;;
5121;SDS011;2563;52.242;7.956;2022-09-01T14:18:59;3.87;;;1.20;;
5121;SDS011;2563;52.242;7.956;2022-09-01T14:21:24;1.80;;;1.20;;
5121;SDS011;2563;52.242;7.956;2022-09-01T14:23:50;6.33;;;1.27;;
5121;SDS011;2563;52.242;7.956;2022-09-01T14:26:16;1.97;;;1.13;;
5121;SDS011;2563;52.242;7.956;2022-09-01T14:28:42;4.57;;;1.30;;
5121;SDS011;2563;52.242;7.956;2022-09-01T14:31:13;1.87;;;1.10;;
5121;SDS011;2563;52.242;7.956;2022-09-01T14:33:40;2.30;;;1.00;;
5121;SDS011;2563;52.242;7.956;2022-09-01T14:36:07;2.10;;;1.20;;
5121;SDS011;2563;52.242;7.956;2022-09-01T14:38:39;3.30;;;1.20;;
5121;SDS011;2563;52.242;7.956;2022-09-01T14:41:05;1.53;;;1.20;;
5121;SDS011;2563;52.242;7.956;2022-09-01T14:43:30;3.33;;;1.00;;
5121;SDS011;2563;52.242;7.956;2022-09-01T14:46:03;1.80;;;1.10;;
5121;SDS011;2563;52.242;7.956;2022-09-01T14:48:34;2.60;;;1.53;;
5121;SDS011;2563;52.242;7.956;2022-09-01T14:51:02;1.80;;;1.17;;
5121;SDS011;2563;52.242;7.956;2022-09-01T14:53:28;1.60;;;1.20;;
5121;SDS011;2563;52.242;7.956;2022-09-01T14:55:55;1.43;;;1.13;;
5121;SDS011;2563;52.242;7.956;2022-09-01T14:58:21;2.20;;;1.03;;
5121;SDS011;2563;52.242;7.956;2022-09-01T15:00:47;3.00;;;1.10;;
5121;SDS011;2563;52.242;7.956;2022-09-01T15:03:12;1.50;;;0.97;;
5121;SDS011;2563;52.242;7.956;2022-09-01T15:05:38;2.00;;;1.00;;
5121;SDS011;2563;52.242;7.956;2022-09-01T15:08:03;5.13;;;1.33;;
5121;SDS011;2563;52.242;7.956;2022-09-01T15:10:29;2.57;;;1.13;;
5121;SDS011;2563;52.242;7.956;2022-09-01T15:12:56;1.33;;;0.97;;
5121;SDS011;2563;52.242;7.956;2022-09-01T15:15:24;1.33;;;1.07;;
5121;SDS011;2563;52.242;7.956;2022-09-01T15:17:50;3.10;;;1.00;;
5121;SDS011;2563;52.242;7.956;2022-09-01T15:20:15;2.80;;;0.90;;
5121;SDS011;2563;52.242;7.956;2022-09-01T15:23:00;2.10;;;1.07;;
5121;SDS011;2563;52.242;7.956;2022-09-01T15:25:25;2.03;;;1.10;;
5121;SDS011;2563;52.242;7.956;2022-09-01T15:27:51;1.20;;;0.80;;
5121;SDS011;2563;52.242;7.956;2022-09-01T15:30:16;1.47;;;0.80;;
5121;SDS011;2563;52.242;7.956;2022-09-01T15:32:43;2.03;;;0.97;;
5121;SDS011;2563;52.242;7.956;2022-09-01T15:35:12;2.10;;;0.93;;
5121;SDS011;2563;52.242;7.956;2022-09-01T15:37:39;2.67;;;0.90;;
5121;SDS011;2563;52.242;7.956;2022-09-01T15:40:05;1.80;;;1.13;;
5121;SDS011;2563;52.242;7.956;2022-09-01T15:42:33;3.17;;;1.23;;
5121;SDS011;2563;52.242;7.956;2022-09-01T15:45:00;3.10;;;1.20;;
5121;SDS011;2563;52.242;7.956;2022-09-01T15:47:28;3.53;;;1.20;;
5121;SDS011;2563;52.242;7.956;2022-09-01T15:49:54;5.13;;;1.30;;
5121;SDS011;2563;52.242;7.956;2022-09-01T15:52:19;5.33;;;0.97;;
5121;SDS011;2563;52.242;7.956;2022-09-01T15:54:45;3.03;;;1.00;;
5121;SDS011;2563;52.242;7.956;2022-09-01T15:57:10;3.20;;;1.10;;
5121;SDS011;2563;52.242;7.956;2022-09-01T15:59:35;2.17;;;1.00;;
5121;SDS011;2563;52.242;7.956;2022-09-01T16:02:04;2.30;;;1.30;;
5121;SDS011;2563;52.242;7.956;2022-09-01T16:04:31;1.57;;;0.90;;
5121;SDS011;2563;52.242;7.956;2022-09-01T16:06:57;2.47;;;1.10;;
5121;SDS011;2563;52.242;7.956;2022-09-01T16:09:23;1.87;;;1.60;;
5121;SDS011;2563;52.242;7.956;2022-09-01T16:11:50;2.27;;;1.20;;
5121;SDS011;2563;52.242;7.956;2022-09-01T16:14:16;2.07;;;1.27;;
5121;SDS011;2563;52.242;7.956;2022-09-01T16:19:36;2.43;;;1.20;;
5121;SDS011;2563;52.242;7.956;2022-09-01T16:22:27;3.90;;;1.00;;
5121;SDS011;2563;52.242;7.956;2022-09-01T16:25:03;1.40;;;0.90;;
5121;SDS011;2563;52.242;7.956;2022-09-01T16:27:43;1.67;;;1.10;;
5121;SDS011;2563;52.242;7.956;2022-09-01T16:30:10;1.30;;;0.90;;
5121;SDS011;2563;52.242;7.956;2022-09-01T16:32:40;1.23;;;0.90;;
5121;SDS011;2563;52.242;7.956;2022-09-01T16:35:09;2.10;;;1.20;;
5121;SDS011;2563;52.242;7.956;2022-09-01T16:40:50;2.83;;;1.10;;
5121;SDS011;2563;52.242;7.956;2022-09-01T16:46:07;4.70;;;1.00;;
5121;SDS011;2563;52.242;7.956;2022-09-01T16:51:26;6.90;;;0.93;;
5121;SDS011;2563;52.242;7.956;2022-09-01T16:54:02;2.07;;;0.90;;
5121;SDS011;2563;52.242;7.956;2022-09-01T16:56:53;3.80;;;1.00;;
5121;SDS011;2563;52.242;7.956;2022-09-01T17:07:12;1.40;;;0.73;;
5121;SDS011;2563;52.242;7.956;2022-09-01T17:12:15;1.77;;;1.07;;